createdAt,value
2018-08-12T00:02:26.656Z,99.90
2018-08-12T00:04:54.835Z,99.90
2018-08-12T00:07:21.676Z,99.90
2018-08-12T00:09:51.177Z,99.90
2018-08-12T00:12:20.347Z,99.90
2018-08-12T00:14:48.174Z,99.90
2018-08-12T00:17:15.191Z,99.90
2018-08-12T00:19:42.345Z,99.90
2018-08-12T00:22:09.390Z,99.90
2018-08-12T00:24:37.204Z,99.90
2018-08-12T00:27:05.428Z,99.90
2018-08-12T00:29:33.405Z,99.90
2018-08-12T00:32:00.448Z,99.90
2018-08-12T00:34:28.924Z,99.90
2018-08-12T00:36:56.171Z,99.90
2018-08-12T00:39:24.168Z,99.90
2018-08-12T00:41:51.285Z,99.90
2018-08-12T00:44:18.453Z,99.90
2018-08-12T00:46:45.330Z,99.90
2018-08-12T00:49:12.395Z,99.90
2018-08-12T00:51:40.232Z,99.90
2018-08-12T00:54:07.097Z,99.90
2018-08-12T00:56:34.693Z,99.90
2018-08-12T00:59:02.157Z,99.90
2018-08-12T01:01:29.699Z,99.90
2018-08-12T01:03:57.147Z,99.90
2018-08-12T01:06:24.608Z,99.90
2018-08-12T01:08:52.152Z,99.90
2018-08-12T01:11:18.874Z,99.90
2018-08-12T01:13:45.746Z,99.90
2018-08-12T01:16:13.228Z,99.90
2018-08-12T01:18:39.979Z,99.90
2018-08-12T01:21:06.675Z,99.90
2018-08-12T01:23:34.239Z,99.90
2018-08-12T01:26:00.962Z,99.90
2018-08-12T01:28:28.480Z,99.90
2018-08-12T01:30:55.299Z,99.90
2018-08-12T01:33:22.080Z,99.90
2018-08-12T01:35:48.818Z,99.90
2018-08-12T01:38:15.576Z,99.90
2018-08-12T01:40:42.265Z,99.90
2018-08-12T01:43:09.006Z,99.90
2018-08-12T01:45:35.736Z,99.90
2018-08-12T01:48:02.482Z,99.90
2018-08-12T01:50:29.948Z,99.90
2018-08-12T01:52:56.804Z,99.90
2018-08-12T01:55:23.476Z,99.90
2018-08-12T01:57:50.206Z,99.90
2018-08-12T02:00:17.097Z,99.90
2018-08-12T02:02:44.503Z,99.90
2018-08-12T02:05:11.229Z,99.90
2018-08-12T02:07:37.993Z,99.90
2018-08-12T02:10:04.715Z,99.90
2018-08-12T02:12:31.368Z,99.90
2018-08-12T02:14:58.072Z,99.90
2018-08-12T02:17:24.886Z,99.90
2018-08-12T02:19:52.323Z,99.90
2018-08-12T02:22:19.009Z,99.90
2018-08-12T02:24:45.727Z,99.90
2018-08-12T02:27:13.104Z,99.90
2018-08-12T02:29:39.894Z,99.90
2018-08-12T02:32:06.568Z,99.90
2018-08-12T02:34:34.024Z,99.90
2018-08-12T02:37:00.777Z,99.90
2018-08-12T02:39:28.173Z,99.90
2018-08-12T02:41:54.832Z,99.90
2018-08-12T02:44:21.581Z,99.90
2018-08-12T02:46:48.267Z,99.90
2018-08-12T02:49:14.966Z,99.90
2018-08-12T02:51:41.669Z,99.90
2018-08-12T02:54:08.355Z,99.90
2018-08-12T02:56:35.813Z,99.90
2018-08-12T02:59:03.217Z,99.90
2018-08-12T03:01:30.058Z,99.90
2018-08-12T03:03:56.703Z,99.90
2018-08-12T03:06:23.409Z,99.90
2018-08-12T03:08:50.096Z,99.90
2018-08-12T03:11:16.812Z,99.90
2018-08-12T03:13:43.663Z,99.90
2018-08-12T03:16:10.332Z,99.90
2018-08-12T03:18:37.038Z,99.90
2018-08-12T03:21:03.901Z,99.90
2018-08-12T03:23:30.607Z,99.90
2018-08-12T03:25:57.290Z,99.90
2018-08-12T03:28:23.976Z,99.90
2018-08-12T03:30:50.666Z,99.90
2018-08-12T03:33:17.391Z,99.90
2018-08-12T03:35:44.114Z,99.90
2018-08-12T03:38:10.813Z,99.90
2018-08-12T03:40:38.276Z,99.90
2018-08-12T03:43:05.692Z,99.90
2018-08-12T03:45:32.403Z,99.90
2018-08-12T03:47:59.093Z,99.90
2018-08-12T03:50:26.532Z,99.90
2018-08-12T03:52:53.292Z,99.90
2018-08-12T03:55:19.994Z,99.90
2018-08-12T03:57:46.725Z,99.90
2018-08-12T04:00:13.449Z,99.90
2018-08-12T04:02:40.231Z,99.90
2018-08-12T04:05:06.930Z,99.90
2018-08-12T04:07:33.638Z,99.90
2018-08-12T04:10:01.083Z,99.90
2018-08-12T04:12:27.768Z,99.90
2018-08-12T04:14:54.459Z,99.90
2018-08-12T04:17:21.878Z,99.90
2018-08-12T04:19:48.726Z,99.90
2018-08-12T04:22:15.434Z,99.90
2018-08-12T04:24:42.170Z,99.90
2018-08-12T04:27:09.817Z,99.90
2018-08-12T04:29:36.537Z,99.90
2018-08-12T04:32:03.270Z,99.90
2018-08-12T04:34:30.057Z,99.90
2018-08-12T04:36:56.730Z,99.90
2018-08-12T04:39:23.396Z,99.90
2018-08-12T04:41:50.092Z,99.90
2018-08-12T04:44:16.778Z,99.90
2018-08-12T04:46:43.529Z,99.90
2018-08-12T04:49:10.220Z,99.90
2018-08-12T04:51:36.899Z,99.90
2018-08-12T04:54:04.382Z,99.90
2018-08-12T04:56:31.110Z,99.90
2018-08-12T04:58:57.802Z,99.90
2018-08-12T05:01:24.518Z,99.90
2018-08-12T05:03:51.263Z,99.90
2018-08-12T05:06:18.668Z,99.90
2018-08-12T05:08:45.375Z,99.90
2018-08-12T05:11:12.234Z,99.90
2018-08-12T05:13:38.945Z,99.90
2018-08-12T05:16:05.704Z,99.90
2018-08-12T05:18:32.387Z,99.90
2018-08-12T05:20:59.776Z,99.90
2018-08-12T05:23:26.577Z,99.90
2018-08-12T05:25:53.252Z,99.90
2018-08-12T05:28:19.909Z,99.90
2018-08-12T05:30:46.696Z,99.90
2018-08-12T05:33:13.384Z,99.90
2018-08-12T05:35:40.054Z,99.90
2018-08-12T05:38:06.702Z,99.90
2018-08-12T05:40:33.414Z,99.90
2018-08-12T05:43:00.104Z,99.90
2018-08-12T05:45:27.639Z,99.90
2018-08-12T05:47:54.316Z,99.90
2018-08-12T05:50:21.030Z,99.90
2018-08-12T05:52:48.431Z,99.90
2018-08-12T05:55:15.160Z,99.90
2018-08-12T05:57:41.844Z,99.90
2018-08-12T06:00:08.785Z,99.90
2018-08-12T06:02:35.458Z,99.90
2018-08-12T06:05:02.214Z,92.40
2018-08-12T06:07:28.927Z,87.20
2018-08-12T06:09:56.319Z,90.00
2018-08-12T06:12:23.139Z,89.80
2018-08-12T06:14:50.559Z,93.30
2018-08-12T06:17:17.328Z,93.30
2018-08-12T06:19:44.069Z,94.80
2018-08-12T06:22:11.495Z,99.90
2018-08-12T06:24:38.200Z,99.90
2018-08-12T06:27:04.889Z,99.90
2018-08-12T06:29:31.580Z,99.90
2018-08-12T06:31:58.219Z,99.90
2018-08-12T06:34:25.003Z,99.90
2018-08-12T06:36:51.694Z,99.90
2018-08-12T06:39:18.461Z,99.90
2018-08-12T06:41:45.140Z,95.20
2018-08-12T06:44:12.541Z,90.90
2018-08-12T06:46:39.270Z,90.80
2018-08-12T06:49:05.976Z,82.50
2018-08-12T06:51:32.663Z,81.20
2018-08-12T06:53:59.342Z,82.60
2018-08-12T06:56:26.064Z,88.00
2018-08-12T06:58:52.728Z,91.20
2018-08-12T07:01:19.443Z,92.10
2018-08-12T07:03:46.212Z,96.40
2018-08-12T07:06:13.655Z,99.90
2018-08-12T07:08:40.347Z,99.90
2018-08-12T07:11:08.006Z,99.90
2018-08-12T07:13:35.129Z,99.90
2018-08-12T07:16:02.687Z,99.90
2018-08-12T07:18:30.133Z,99.90
2018-08-12T07:20:57.676Z,92.70
2018-08-12T07:23:25.293Z,89.70
2018-08-12T07:25:51.927Z,89.70
2018-08-12T07:28:18.602Z,82.00
2018-08-12T07:30:45.332Z,77.90
2018-08-12T07:33:11.995Z,76.00
2018-08-12T07:35:38.681Z,79.20
2018-08-12T07:38:05.409Z,81.50
2018-08-12T07:40:32.102Z,75.00
2018-08-12T07:42:58.951Z,70.60
2018-08-12T07:45:25.624Z,66.20
2018-08-12T07:47:53.054Z,65.30
2018-08-12T07:50:19.787Z,65.20
2018-08-12T07:52:46.471Z,67.90
2018-08-12T07:55:13.316Z,72.50
2018-08-12T07:57:40.276Z,73.10
2018-08-12T08:00:07.223Z,75.10
2018-08-12T08:02:34.373Z,74.10
2018-08-12T08:05:01.328Z,76.40
2018-08-12T08:07:28.160Z,81.10
2018-08-12T08:09:54.894Z,84.90
2018-08-12T08:12:21.596Z,84.90
2018-08-12T08:14:48.283Z,82.30
2018-08-12T08:17:15.165Z,79.70
2018-08-12T08:19:43.392Z,77.10
2018-08-12T08:22:10.118Z,77.10
2018-08-12T08:24:37.293Z,79.60
2018-08-12T08:27:06.691Z,82.60
2018-08-12T08:29:35.087Z,82.50
2018-08-12T08:32:03.278Z,90.20
2018-08-12T08:34:30.133Z,90.20
2018-08-12T08:36:56.934Z,90.60
2018-08-12T08:39:23.637Z,90.80
2018-08-12T08:41:51.198Z,92.30
2018-08-12T08:44:18.683Z,92.00
2018-08-12T08:46:46.299Z,92.00
2018-08-12T08:49:14.513Z,94.40
2018-08-12T08:51:41.537Z,95.90
2018-08-12T08:54:08.333Z,97.10
2018-08-12T08:56:35.074Z,98.30
2018-08-12T08:59:02.813Z,99.90
2018-08-12T09:01:29.651Z,99.90
2018-08-12T09:03:56.294Z,99.90
2018-08-12T09:06:23.188Z,99.90
2018-08-12T09:08:50.127Z,99.90
2018-08-12T09:11:16.921Z,99.90
2018-08-12T09:13:43.868Z,99.90
2018-08-12T09:16:10.609Z,99.90
2018-08-12T09:18:38.066Z,99.90
2018-08-12T09:21:05.011Z,99.90
2018-08-12T09:23:31.853Z,99.90
2018-08-12T09:25:58.589Z,99.90
2018-08-12T09:28:26.239Z,99.90
2018-08-12T09:30:53.185Z,99.90
2018-08-12T09:33:19.918Z,99.90
2018-08-12T09:35:46.887Z,99.90
2018-08-12T09:38:13.708Z,99.90
2018-08-12T09:40:40.468Z,99.90
2018-08-12T09:43:07.264Z,99.90
2018-08-12T09:45:34.051Z,99.90
2018-08-12T09:48:00.795Z,99.90
2018-08-12T09:50:27.446Z,99.90
2018-08-12T09:52:55.280Z,99.90
2018-08-12T09:55:22.958Z,99.90
2018-08-12T09:57:49.700Z,99.90
2018-08-12T10:00:16.562Z,99.90
2018-08-12T10:02:43.593Z,99.90
2018-08-12T10:05:21.251Z,99.90
2018-08-12T10:07:48.007Z,99.90
2018-08-12T10:10:14.756Z,99.20
2018-08-12T10:12:42.310Z,96.30
2018-08-12T10:15:09.040Z,96.30
2018-08-12T10:17:36.499Z,94.90
2018-08-12T10:20:03.306Z,94.80
2018-08-12T10:22:30.090Z,94.40
2018-08-12T10:24:56.935Z,95.20
2018-08-12T10:27:24.512Z,95.30
2018-08-12T10:29:51.359Z,95.30
2018-08-12T10:32:18.138Z,94.00
2018-08-12T10:34:44.929Z,93.60
2018-08-12T10:37:11.679Z,94.00
2018-08-12T10:39:38.459Z,92.40
2018-08-12T10:42:05.970Z,92.40
2018-08-12T10:44:32.967Z,92.70
2018-08-12T10:46:59.701Z,92.30
2018-08-12T10:49:26.418Z,94.00
2018-08-12T10:51:53.236Z,92.70
2018-08-12T10:54:20.113Z,91.90
2018-08-12T10:56:46.903Z,92.30
2018-08-12T10:59:14.499Z,93.60
2018-08-12T11:01:41.236Z,93.50
2018-08-12T11:04:07.996Z,95.00
2018-08-12T11:06:34.772Z,96.10
2018-08-12T11:09:02.255Z,94.30
2018-08-12T11:11:29.217Z,94.20
2018-08-12T11:13:55.958Z,93.40
2018-08-12T11:16:22.803Z,94.10
2018-08-12T11:18:49.643Z,93.30
2018-08-12T11:21:16.556Z,92.30
2018-08-12T11:23:43.451Z,94.90
2018-08-12T11:26:10.172Z,93.60
2018-08-12T11:28:36.944Z,94.20
2018-08-12T11:31:03.754Z,94.00
2018-08-12T11:33:31.143Z,93.60
2018-08-12T11:35:57.855Z,93.30
2018-08-12T11:38:24.903Z,93.40
2018-08-12T11:40:51.741Z,93.10
2018-08-12T11:43:18.432Z,94.60
2018-08-12T11:45:45.221Z,95.00
2018-08-12T11:48:12.032Z,95.50
2018-08-12T11:50:39.520Z,95.00
2018-08-12T11:53:06.222Z,94.90
2018-08-12T11:55:33.063Z,95.10
2018-08-12T11:57:59.785Z,95.80
2018-08-12T12:00:26.689Z,95.50
2018-08-12T12:02:53.531Z,96.40
2018-08-12T12:05:20.252Z,98.10
2018-08-12T12:07:46.975Z,98.90
2018-08-12T12:10:14.674Z,99.90
2018-08-12T12:12:41.388Z,99.90
2018-08-12T12:15:08.202Z,99.90
2018-08-12T12:17:36.129Z,97.50
2018-08-12T12:20:03.081Z,97.50
2018-08-12T12:22:29.909Z,99.70
2018-08-12T12:24:56.682Z,99.90
2018-08-12T12:27:23.751Z,99.90
2018-08-12T12:29:51.227Z,99.90
2018-08-12T12:32:18.741Z,99.90
2018-08-12T12:34:45.969Z,99.90
2018-08-12T12:37:13.099Z,99.90
2018-08-12T12:39:40.026Z,99.90
2018-08-12T12:42:06.792Z,99.90
2018-08-12T12:44:33.475Z,99.90
2018-08-12T12:47:00.220Z,99.90
2018-08-12T12:49:26.932Z,99.90
2018-08-12T12:51:53.815Z,99.90
2018-08-12T12:54:21.462Z,99.90
2018-08-12T12:56:48.267Z,99.90
2018-08-12T12:59:15.323Z,99.90
2018-08-12T13:01:42.059Z,99.90
2018-08-12T13:04:08.800Z,99.90
2018-08-12T13:06:35.629Z,99.90
2018-08-12T13:09:02.413Z,99.90
2018-08-12T13:11:29.328Z,99.90
2018-08-12T13:13:56.046Z,99.90
2018-08-12T13:16:24.249Z,99.90
2018-08-12T13:18:51.160Z,99.90
2018-08-12T13:21:17.793Z,99.90
2018-08-12T13:23:44.479Z,99.90
2018-08-12T13:26:11.160Z,99.90
2018-08-12T13:28:37.884Z,99.90
2018-08-12T13:31:05.528Z,99.90
2018-08-12T13:33:32.223Z,99.90
2018-08-12T13:35:58.922Z,99.90
2018-08-12T13:38:25.650Z,99.90
2018-08-12T13:40:53.274Z,99.90
2018-08-12T13:43:20.230Z,99.90
2018-08-12T13:45:46.947Z,99.90
2018-08-12T13:48:14.365Z,99.90
2018-08-12T13:50:41.024Z,99.90
2018-08-12T13:53:08.149Z,99.90
2018-08-12T13:55:35.787Z,99.90
2018-08-12T13:58:02.521Z,99.90
2018-08-12T14:00:29.218Z,99.90
2018-08-12T14:02:56.751Z,99.90
2018-08-12T14:05:23.511Z,99.90
2018-08-12T14:07:50.483Z,99.90
2018-08-12T14:10:17.957Z,99.90
2018-08-12T14:12:44.685Z,99.90
2018-08-12T14:15:11.903Z,99.90
2018-08-12T14:17:38.601Z,99.90
2018-08-12T14:20:05.526Z,99.90
2018-08-12T14:22:32.493Z,99.90
2018-08-12T14:24:59.176Z,99.90
2018-08-12T14:27:25.885Z,99.90
2018-08-12T14:29:52.634Z,99.90
2018-08-12T14:32:19.287Z,99.90
2018-08-12T14:34:45.998Z,99.90
2018-08-12T14:37:12.712Z,99.90
2018-08-12T14:39:40.464Z,99.90
2018-08-12T14:42:08.047Z,99.90
2018-08-12T14:44:35.608Z,99.90
2018-08-12T14:47:02.396Z,99.90
2018-08-12T14:49:29.209Z,99.90
2018-08-12T14:51:56.314Z,99.90
2018-08-12T14:54:23.970Z,99.90
2018-08-12T14:56:51.378Z,99.90
2018-08-12T14:59:18.875Z,99.90
2018-08-12T15:01:46.329Z,99.90
2018-08-12T15:04:14.115Z,99.90
2018-08-12T15:06:40.994Z,99.90
2018-08-12T15:09:07.804Z,99.90
2018-08-12T15:11:34.923Z,99.90
2018-08-12T15:14:02.139Z,99.90
2018-08-12T15:16:29.158Z,99.90
2018-08-12T15:18:55.830Z,99.90
2018-08-12T15:21:22.904Z,99.90
2018-08-12T15:23:49.941Z,99.90
2018-08-12T15:26:16.717Z,99.90
2018-08-12T15:28:44.204Z,99.90
2018-08-12T15:31:10.892Z,99.90
2018-08-12T15:33:37.803Z,99.90
2018-08-12T15:36:04.754Z,99.90
2018-08-12T15:38:31.426Z,99.90
2018-08-12T15:40:58.859Z,99.90
2018-08-12T15:43:25.627Z,99.90
2018-08-12T15:45:52.307Z,99.90
2018-08-12T15:48:19.790Z,99.90
2018-08-12T15:50:46.579Z,99.90
2018-08-12T15:53:14.192Z,99.90
2018-08-12T15:55:40.946Z,99.90
2018-08-12T15:58:07.668Z,99.90
2018-08-12T16:00:34.344Z,99.90
2018-08-12T16:03:01.798Z,99.90
2018-08-12T16:05:28.539Z,99.90
2018-08-12T16:07:55.200Z,99.90
2018-08-12T16:10:22.795Z,99.90
2018-08-12T16:12:49.492Z,99.90
2018-08-12T16:15:16.286Z,99.90
2018-08-12T16:17:43.050Z,99.90
2018-08-12T16:20:09.783Z,99.90
2018-08-12T16:22:36.518Z,99.90
2018-08-12T16:25:03.305Z,99.90
2018-08-12T16:27:29.996Z,99.90
2018-08-12T16:29:56.761Z,99.90
2018-08-12T16:32:24.209Z,99.90
2018-08-12T16:34:50.944Z,99.90
2018-08-12T16:37:17.719Z,99.90
2018-08-12T16:39:44.461Z,99.90
2018-08-12T16:42:11.897Z,99.90
2018-08-12T16:44:38.593Z,99.90
2018-08-12T16:47:06.237Z,99.90
2018-08-12T16:49:32.951Z,99.90
2018-08-12T16:52:00.397Z,99.90
2018-08-12T16:54:27.233Z,99.90
2018-08-12T16:56:54.959Z,99.90
2018-08-12T16:59:21.773Z,99.90
2018-08-12T17:01:48.673Z,99.90
2018-08-12T17:04:15.671Z,99.90
2018-08-12T17:06:43.719Z,99.90
2018-08-12T17:09:10.760Z,99.90
2018-08-12T17:11:37.621Z,99.90
2018-08-12T17:14:11.677Z,99.90
2018-08-12T17:16:38.590Z,99.90
2018-08-12T17:19:08.130Z,99.90
2018-08-12T17:21:35.000Z,99.90
2018-08-12T17:24:02.484Z,99.90
2018-08-12T17:26:29.947Z,99.90
2018-08-12T17:28:56.916Z,99.90
2018-08-12T17:31:24.664Z,99.90
2018-08-12T17:33:51.529Z,99.90
2018-08-12T17:36:19.005Z,99.90
2018-08-12T17:38:45.737Z,99.90
2018-08-12T17:41:13.384Z,99.90
2018-08-12T17:43:40.090Z,99.90
2018-08-12T17:46:07.555Z,99.90
2018-08-12T17:48:34.603Z,99.90
2018-08-12T17:51:01.500Z,99.90
2018-08-12T17:53:28.830Z,99.90
2018-08-12T17:55:55.508Z,99.90
2018-08-12T17:58:23.143Z,99.90
2018-08-12T18:00:50.732Z,99.90
2018-08-12T18:03:18.340Z,99.90
2018-08-12T18:05:45.204Z,99.90
2018-08-12T18:08:11.884Z,99.90
2018-08-12T18:10:39.296Z,99.90
2018-08-12T18:13:06.014Z,99.90
2018-08-12T18:15:33.675Z,99.90
2018-08-12T18:18:00.517Z,99.90
2018-08-12T18:20:28.046Z,99.90
2018-08-12T18:22:55.479Z,99.90
2018-08-12T18:25:22.301Z,99.90
2018-08-12T18:27:48.962Z,99.90
2018-08-12T18:30:15.650Z,99.90
2018-08-12T18:32:43.123Z,99.90
2018-08-12T18:35:10.147Z,99.90
2018-08-12T18:37:37.037Z,99.90
2018-08-12T18:40:04.904Z,99.90
2018-08-12T18:42:31.600Z,99.90
2018-08-12T18:44:58.356Z,99.90
2018-08-12T18:47:25.490Z,99.90
2018-08-12T18:49:52.284Z,99.90
2018-08-12T18:52:19.209Z,99.90
2018-08-12T18:54:45.929Z,99.90
2018-08-12T18:57:12.751Z,99.90
2018-08-12T18:59:39.465Z,99.90
2018-08-12T19:02:06.880Z,99.90
2018-08-12T19:04:33.593Z,99.90
2018-08-12T19:07:00.305Z,99.90
2018-08-12T19:09:27.125Z,99.90
2018-08-12T19:11:53.775Z,99.90
2018-08-12T19:14:21.259Z,99.90
2018-08-12T19:17:02.878Z,99.90
2018-08-12T19:19:29.629Z,99.90
2018-08-12T19:21:56.904Z,99.90
2018-08-12T19:24:23.961Z,99.90
2018-08-12T19:26:51.486Z,99.90
2018-08-12T19:29:18.200Z,99.90
2018-08-12T19:31:44.911Z,99.90
2018-08-12T19:34:12.324Z,99.90
2018-08-12T19:36:39.157Z,99.90
2018-08-12T19:39:05.828Z,99.90
2018-08-12T19:41:33.366Z,99.90
2018-08-12T19:44:00.159Z,99.90
2018-08-12T19:46:26.876Z,99.90
2018-08-12T19:48:53.540Z,99.90
2018-08-12T19:51:20.330Z,99.90
2018-08-12T19:53:47.394Z,99.90
2018-08-12T19:56:14.093Z,99.90
2018-08-12T19:58:40.803Z,99.90
2018-08-12T20:01:08.262Z,99.90
2018-08-12T20:03:35.725Z,99.90
2018-08-12T20:06:03.148Z,99.90
2018-08-12T20:08:29.837Z,99.90
2018-08-12T20:10:56.532Z,99.90
2018-08-12T20:13:23.202Z,99.90
2018-08-12T20:15:49.882Z,99.90
2018-08-12T20:18:16.622Z,99.90
2018-08-12T20:20:43.332Z,99.90
2018-08-12T20:23:10.038Z,99.90
2018-08-12T20:25:36.753Z,99.90
2018-08-12T20:28:03.540Z,99.90
2018-08-12T20:30:30.288Z,99.90
2018-08-12T20:32:57.730Z,99.90
2018-08-12T20:35:25.131Z,99.90
2018-08-12T20:37:52.630Z,99.90
2018-08-12T20:40:19.364Z,99.90
2018-08-12T20:42:47.022Z,99.90
2018-08-12T20:45:13.767Z,99.90
2018-08-12T20:47:40.478Z,99.90
2018-08-12T20:50:07.196Z,99.90
2018-08-12T20:52:33.966Z,99.90
2018-08-12T20:55:00.664Z,99.90
2018-08-12T20:57:27.331Z,99.90
2018-08-12T20:59:53.995Z,99.90
2018-08-12T21:02:20.729Z,99.90
2018-08-12T21:04:47.520Z,99.90
2018-08-12T21:07:14.974Z,99.90
2018-08-12T21:09:42.429Z,99.90
2018-08-12T21:12:10.091Z,99.90
2018-08-12T21:14:36.633Z,99.90
2018-08-12T21:17:03.325Z,99.90
2018-08-12T21:19:30.056Z,99.90
2018-08-12T21:21:56.780Z,99.90
2018-08-12T21:24:23.492Z,99.90
2018-08-12T21:26:50.953Z,99.90
2018-08-12T21:29:17.656Z,99.90
2018-08-12T21:31:44.698Z,99.90
2018-08-12T21:34:12.859Z,99.90
2018-08-12T21:36:40.165Z,99.90
2018-08-12T21:39:07.009Z,99.90
2018-08-12T21:41:33.738Z,99.90
2018-08-12T21:44:00.457Z,99.90
2018-08-12T21:46:27.151Z,99.90
2018-08-12T21:48:53.910Z,99.90
2018-08-12T21:51:20.680Z,99.90
2018-08-12T21:53:48.017Z,99.90
2018-08-12T21:56:14.900Z,99.90
2018-08-12T21:58:41.800Z,99.90
2018-08-12T22:01:09.362Z,99.90
2018-08-12T22:03:36.087Z,99.90
2018-08-12T22:06:02.928Z,99.90
2018-08-12T22:08:29.558Z,99.90
2018-08-12T22:10:56.323Z,99.90
2018-08-12T22:13:24.996Z,99.90
2018-08-12T22:15:52.095Z,99.90
2018-08-12T22:18:19.612Z,99.90
2018-08-12T22:20:46.389Z,99.90
2018-08-12T22:23:13.951Z,99.90
2018-08-12T22:25:41.485Z,99.90
2018-08-12T22:28:08.278Z,99.90
2018-08-12T22:30:35.083Z,99.90
2018-08-12T22:33:01.925Z,99.90
2018-08-12T22:35:28.764Z,99.90
2018-08-12T22:37:56.272Z,99.90
2018-08-12T22:40:23.133Z,99.90
2018-08-12T22:42:49.973Z,99.90
2018-08-12T22:45:16.795Z,99.90
2018-08-12T22:47:43.572Z,99.90
2018-08-12T22:50:10.369Z,99.90
2018-08-12T22:52:37.199Z,99.90
2018-08-12T22:55:04.087Z,99.90
2018-08-12T22:57:30.905Z,99.90
2018-08-12T22:59:57.778Z,99.90
2018-08-12T23:02:24.616Z,99.90
2018-08-12T23:04:51.421Z,99.90
2018-08-12T23:07:19.142Z,99.90
2018-08-12T23:09:45.930Z,99.90
2018-08-12T23:12:12.728Z,99.90
2018-08-12T23:14:39.603Z,99.90
2018-08-12T23:17:07.175Z,99.90
2018-08-12T23:19:33.943Z,99.90
2018-08-12T23:22:00.786Z,99.90
2018-08-12T23:24:27.625Z,99.90
2018-08-12T23:26:54.405Z,99.90
2018-08-12T23:29:21.207Z,99.90
2018-08-12T23:31:48.764Z,99.90
2018-08-12T23:34:15.567Z,99.90
2018-08-12T23:36:43.131Z,99.90
2018-08-12T23:39:10.747Z,99.90
2018-08-12T23:41:37.543Z,99.90
2018-08-12T23:44:04.452Z,99.90
2018-08-12T23:46:32.035Z,99.90
2018-08-12T23:48:58.921Z,99.90
2018-08-12T23:51:26.629Z,99.90
2018-08-12T23:53:54.121Z,99.90
2018-08-12T23:56:20.933Z,99.90
2018-08-12T23:58:50.667Z,99.90
